createdAt,value
2023-04-03T00:02:11.404Z,12.00
2023-04-03T00:04:38.448Z,13.18
2023-04-03T00:07:05.491Z,12.30
2023-04-03T00:09:32.512Z,13.27
2023-04-03T00:11:59.588Z,12.48
2023-04-03T00:14:26.650Z,12.27
2023-04-03T00:16:53.722Z,13.07
2023-04-03T00:19:20.847Z,12.35
2023-04-03T00:21:47.884Z,11.68
2023-04-03T00:24:14.908Z,12.20
2023-04-03T00:26:41.899Z,12.02
2023-04-03T00:29:08.926Z,13.23
2023-04-03T00:31:36.310Z,11.88
2023-04-03T00:34:03.379Z,12.18
2023-04-03T00:36:30.641Z,12.55
2023-04-03T00:38:57.789Z,11.32
2023-04-03T00:41:24.806Z,11.20
2023-04-03T00:43:51.834Z,11.82
2023-04-03T00:46:18.922Z,11.27
2023-04-03T00:48:47.010Z,10.77
2023-04-03T00:51:32.241Z,10.30
2023-04-03T00:54:04.304Z,10.45
2023-04-03T00:56:31.811Z,10.82
2023-04-03T00:59:05.015Z,11.57
2023-04-03T01:01:32.643Z,10.75
2023-04-03T01:04:04.032Z,11.65
2023-04-03T01:06:33.895Z,9.95
2023-04-03T01:09:01.227Z,11.85
2023-04-03T01:11:28.625Z,11.27
2023-04-03T01:13:55.705Z,10.40
2023-04-03T01:16:22.880Z,10.73
2023-04-03T01:18:50.007Z,11.27
2023-04-03T01:21:23.325Z,11.18
2023-04-03T01:23:57.702Z,10.13
2023-04-03T01:26:26.501Z,11.20
2023-04-03T01:28:55.412Z,10.40
2023-04-03T01:31:31.613Z,10.60
2023-04-03T01:33:58.727Z,10.60
2023-04-03T01:36:28.014Z,11.20
2023-04-03T01:38:55.565Z,10.32
2023-04-03T01:41:22.907Z,10.57
2023-04-03T01:43:50.593Z,11.10
2023-04-03T01:46:18.467Z,10.15
2023-04-03T01:48:45.545Z,9.88
2023-04-03T01:51:12.759Z,10.70
2023-04-03T01:53:40.048Z,10.90
2023-04-03T01:56:07.206Z,10.85
2023-04-03T01:58:34.297Z,10.85
2023-04-03T02:01:01.518Z,10.55
2023-04-03T02:03:28.690Z,9.68
2023-04-03T02:05:56.184Z,10.15
2023-04-03T02:08:23.258Z,10.50
2023-04-03T02:10:50.861Z,9.98
2023-04-03T02:13:18.467Z,9.55
2023-04-03T02:15:46.295Z,9.85
2023-04-03T02:18:14.077Z,8.90
2023-04-03T02:20:41.148Z,9.73
2023-04-03T02:23:08.352Z,9.73
2023-04-03T02:25:37.921Z,10.18
2023-04-03T02:28:05.815Z,8.88
2023-04-03T02:30:32.857Z,9.20
2023-04-03T02:32:59.930Z,9.30
2023-04-03T02:35:27.097Z,9.20
2023-04-03T02:37:54.163Z,8.57
2023-04-03T02:40:21.267Z,10.05
2023-04-03T02:42:48.371Z,8.65
2023-04-03T02:45:15.524Z,9.55
2023-04-03T02:47:42.594Z,8.93
2023-04-03T02:50:09.876Z,8.85
2023-04-03T02:52:36.954Z,9.05
2023-04-03T02:55:04.547Z,7.88
2023-04-03T02:57:31.718Z,8.07
2023-04-03T02:59:58.800Z,8.70
2023-04-03T03:02:25.904Z,7.22
2023-04-03T03:04:53.069Z,7.70
2023-04-03T03:07:20.200Z,7.70
2023-04-03T03:09:47.346Z,7.18
2023-04-03T03:12:14.384Z,6.40
2023-04-03T03:14:42.890Z,6.50
2023-04-03T03:17:09.899Z,6.10
2023-04-03T03:19:37.013Z,7.18
2023-04-03T03:22:04.152Z,6.65
2023-04-03T03:24:31.308Z,6.55
2023-04-03T03:26:58.517Z,5.80
2023-04-03T03:29:25.564Z,5.88
2023-04-03T03:31:52.698Z,5.90
2023-04-03T03:34:19.806Z,6.32
2023-04-03T03:36:46.893Z,6.47
2023-04-03T03:39:14.015Z,6.10
2023-04-03T03:41:41.141Z,5.93
2023-04-03T03:44:08.194Z,5.57
2023-04-03T03:46:35.352Z,6.00
2023-04-03T03:49:02.389Z,6.43
2023-04-03T03:51:29.448Z,5.95
2023-04-03T03:53:56.485Z,6.03
2023-04-03T03:56:23.537Z,5.68
2023-04-03T03:58:50.702Z,5.65
2023-04-03T04:01:18.165Z,5.90
2023-04-03T04:03:45.305Z,5.75
2023-04-03T04:06:12.457Z,6.03
2023-04-03T04:08:39.494Z,6.20
2023-04-03T04:11:06.609Z,5.88
2023-04-03T04:13:33.672Z,5.53
2023-04-03T04:16:00.713Z,6.53
2023-04-03T04:18:27.748Z,5.88
2023-04-03T04:20:54.892Z,5.82
2023-04-03T04:23:21.905Z,6.22
2023-04-03T04:25:49.543Z,5.50
2023-04-03T04:28:17.169Z,6.03
2023-04-03T04:30:44.384Z,5.30
2023-04-03T04:33:11.642Z,6.25
2023-04-03T04:35:38.965Z,5.68
2023-04-03T04:38:06.495Z,5.63
2023-04-03T04:40:33.552Z,5.72
2023-04-03T04:43:00.573Z,6.60
2023-04-03T04:45:27.579Z,5.05
2023-04-03T04:47:56.620Z,5.65
2023-04-03T04:50:24.121Z,5.38
2023-04-03T04:52:51.167Z,5.35
2023-04-03T04:55:18.492Z,5.80
2023-04-03T04:57:45.525Z,5.93
2023-04-03T05:00:13.014Z,5.80
2023-04-03T05:02:40.307Z,6.32
2023-04-03T05:05:07.791Z,5.93
2023-04-03T05:07:36.524Z,5.95
2023-04-03T05:10:04.506Z,5.10
2023-04-03T05:12:31.621Z,5.78
2023-04-03T05:14:58.636Z,6.07
2023-04-03T05:17:25.683Z,6.13
2023-04-03T05:19:52.729Z,5.38
2023-04-03T05:22:19.795Z,5.38
2023-04-03T05:24:46.818Z,5.43
2023-04-03T05:27:13.848Z,5.55
2023-04-03T05:29:45.162Z,6.25
2023-04-03T05:32:12.551Z,6.07
2023-04-03T05:34:39.596Z,6.10
2023-04-03T05:37:06.830Z,5.65
2023-04-03T05:39:34.612Z,5.28
2023-04-03T05:42:01.846Z,5.43
2023-04-03T05:44:28.865Z,5.70
2023-04-03T05:46:55.910Z,5.43
2023-04-03T05:49:23.243Z,6.45
2023-04-03T05:51:50.295Z,6.00
2023-04-03T05:54:30.374Z,5.93
2023-04-03T05:56:57.703Z,6.72
2023-04-03T05:59:24.766Z,6.18
2023-04-03T06:01:51.838Z,5.78
2023-04-03T06:04:20.151Z,6.03
2023-04-03T06:06:48.815Z,6.38
2023-04-03T06:09:17.131Z,6.13
2023-04-03T06:11:44.147Z,6.28
2023-04-03T06:14:11.635Z,6.65
2023-04-03T06:16:39.967Z,5.50
2023-04-03T06:19:07.961Z,5.85
2023-04-03T06:21:36.605Z,6.70
2023-04-03T06:24:04.639Z,6.20
2023-04-03T06:26:31.791Z,6.47
2023-04-03T06:28:59.168Z,6.57
2023-04-03T06:31:26.499Z,6.70
2023-04-03T06:33:53.500Z,6.13
2023-04-03T06:36:21.986Z,5.88
2023-04-03T06:38:49.677Z,5.13
2023-04-03T06:41:17.457Z,6.25
2023-04-03T06:43:47.551Z,6.20
2023-04-03T06:46:18.269Z,6.25
2023-04-03T06:48:45.663Z,6.20
2023-04-03T06:51:17.024Z,5.97
2023-04-03T06:53:44.120Z,6.43
2023-04-03T06:56:11.142Z,6.40
2023-04-03T06:58:38.349Z,6.55
2023-04-03T07:01:07.015Z,6.25
2023-04-03T07:03:35.514Z,6.20
2023-04-03T07:06:02.962Z,6.03
2023-04-03T07:08:30.061Z,5.45
2023-04-03T07:10:57.227Z,5.72
2023-04-03T07:13:24.294Z,5.30
2023-04-03T07:15:51.426Z,5.25
2023-04-03T07:18:18.609Z,5.95
2023-04-03T07:20:45.719Z,5.85
2023-04-03T07:23:12.962Z,6.20
2023-04-03T07:25:46.708Z,5.35
2023-04-03T07:28:14.153Z,5.50
2023-04-03T07:30:46.029Z,5.90
2023-04-03T07:33:14.088Z,6.60
2023-04-03T07:35:41.837Z,6.28
2023-04-03T07:38:09.262Z,6.43
2023-04-03T07:40:36.647Z,6.65
2023-04-03T07:43:03.701Z,5.55
2023-04-03T07:45:31.368Z,5.97
2023-04-03T07:47:58.688Z,5.65
2023-04-03T07:50:26.093Z,6.10
2023-04-03T07:52:55.395Z,5.82
2023-04-03T07:55:22.464Z,5.85
2023-04-03T07:57:49.511Z,6.28
2023-04-03T08:00:20.535Z,6.43
2023-04-03T08:02:52.995Z,6.40
2023-04-03T08:05:20.781Z,6.72
2023-04-03T08:07:47.812Z,6.43
2023-04-03T08:10:15.366Z,5.75
2023-04-03T08:12:43.040Z,7.30
2023-04-03T08:15:10.665Z,6.72
2023-04-03T08:17:37.849Z,6.85
2023-04-03T08:20:09.046Z,6.70
2023-04-03T08:22:38.682Z,6.78
2023-04-03T08:25:06.107Z,7.32
2023-04-03T08:27:35.922Z,6.78
2023-04-03T08:30:03.059Z,6.50
2023-04-03T08:32:30.355Z,6.55
2023-04-03T08:34:57.390Z,6.32
2023-04-03T08:37:24.450Z,6.57
2023-04-03T08:39:52.767Z,6.88
2023-04-03T08:42:38.068Z,6.20
2023-04-03T08:45:11.150Z,6.57
2023-04-03T08:47:57.716Z,5.40
2023-04-03T08:50:45.181Z,6.93
2023-04-03T08:53:20.968Z,6.57
2023-04-03T08:55:49.716Z,5.85
2023-04-03T08:58:18.435Z,6.20
2023-04-03T09:00:47.068Z,5.82
2023-04-03T09:03:15.770Z,5.82
2023-04-03T09:05:49.182Z,6.30
2023-04-03T09:08:23.302Z,6.65
2023-04-03T09:10:51.292Z,6.05
2023-04-03T09:13:35.506Z,6.15
2023-04-03T09:18:34.267Z,5.93
2023-04-03T09:21:01.267Z,6.65
2023-04-03T09:23:46.048Z,6.05
2023-04-03T09:26:20.160Z,6.47
2023-04-03T09:28:50.399Z,6.60
2023-04-03T09:31:25.738Z,6.32
2023-04-03T09:33:55.234Z,5.70
2023-04-03T09:36:41.779Z,5.85
2023-04-03T09:39:13.780Z,6.10
2023-04-03T09:41:40.913Z,6.47
2023-04-03T09:44:27.566Z,6.00
2023-04-03T09:46:56.098Z,5.68
2023-04-03T09:49:23.387Z,5.72
2023-04-03T09:51:50.499Z,5.45
2023-04-03T09:54:27.193Z,4.85
2023-04-03T09:56:56.396Z,5.35
2023-04-03T09:59:23.705Z,5.55
2023-04-03T10:02:26.530Z,5.78
2023-04-03T10:05:06.673Z,5.38
2023-04-03T10:07:37.991Z,6.32
2023-04-03T10:10:20.968Z,6.00
2023-04-03T10:12:48.845Z,5.50
2023-04-03T10:15:16.941Z,5.28
2023-04-03T10:17:47.254Z,5.38
2023-04-03T10:20:27.924Z,5.90
2023-04-03T10:23:04.399Z,5.78
2023-04-03T10:25:41.904Z,6.30
2023-04-03T10:28:20.457Z,6.40
2023-04-03T10:31:10.000Z,6.15
2023-04-03T10:33:57.274Z,7.45
2023-04-03T10:36:24.261Z,5.90
2023-04-03T10:39:02.294Z,5.32
2023-04-03T10:41:38.283Z,5.88
2023-04-03T10:44:17.538Z,5.22
2023-04-03T10:46:53.475Z,5.45
2023-04-03T10:49:42.491Z,4.78
2023-04-03T10:52:29.555Z,4.88
2023-04-03T10:55:04.228Z,4.88
2023-04-03T10:57:31.934Z,4.90
2023-04-03T11:00:01.468Z,4.05
2023-04-03T11:02:33.309Z,5.60
2023-04-03T11:05:09.362Z,4.38
2023-04-03T11:07:40.904Z,4.53
2023-04-03T11:10:20.320Z,4.10
2023-04-03T11:12:54.224Z,4.80
2023-04-03T11:17:53.526Z,4.07
2023-04-03T11:20:28.412Z,3.97
2023-04-03T11:23:00.199Z,3.83
2023-04-03T11:25:27.932Z,4.13
2023-04-03T11:27:59.698Z,4.15
2023-04-03T11:30:47.110Z,4.72
2023-04-03T11:33:19.935Z,4.65
2023-04-03T11:35:48.794Z,4.50
2023-04-03T11:38:21.577Z,4.93
2023-04-03T11:40:48.916Z,4.00
2023-04-03T11:43:18.913Z,4.38
2023-04-03T11:45:55.769Z,3.97
2023-04-03T11:48:29.335Z,4.28
2023-04-03T11:50:59.811Z,3.78
2023-04-03T11:53:28.820Z,4.32
2023-04-03T11:55:57.406Z,3.75
2023-04-03T11:58:28.118Z,4.63
2023-04-03T12:00:57.624Z,4.18
2023-04-03T12:03:30.959Z,4.38
2023-04-03T12:06:07.802Z,3.53
2023-04-03T12:08:35.279Z,2.90
2023-04-03T12:11:14.678Z,2.90
2023-04-03T12:13:41.858Z,2.78
2023-04-03T12:16:20.515Z,3.20
2023-04-03T12:18:50.463Z,3.35
2023-04-03T12:21:19.837Z,3.30
2023-04-03T12:24:03.608Z,3.22
2023-04-03T12:26:38.384Z,2.80
2023-04-03T12:29:26.393Z,3.22
2023-04-03T12:32:02.643Z,2.42
2023-04-03T12:34:41.489Z,3.30
2023-04-03T12:37:27.574Z,3.15
2023-04-03T12:39:57.814Z,2.75
2023-04-03T12:42:31.283Z,3.10
2023-04-03T12:45:02.200Z,2.58
2023-04-03T12:47:33.801Z,2.17
2023-04-03T12:50:02.806Z,2.90
2023-04-03T12:52:43.947Z,2.47
2023-04-03T12:55:18.403Z,3.00
2023-04-03T12:57:45.677Z,2.83
2023-04-03T13:00:35.587Z,3.33
2023-04-03T13:03:04.870Z,2.45
2023-04-03T13:05:34.563Z,3.05
2023-04-03T13:08:06.669Z,2.80
2023-04-03T13:10:44.339Z,2.50
2023-04-03T13:13:15.953Z,2.60
2023-04-03T13:15:46.287Z,2.65
2023-04-03T13:18:25.896Z,2.65
2023-04-03T13:20:53.931Z,3.13
2023-04-03T13:23:21.929Z,2.40
2023-04-03T13:25:49.671Z,2.92
2023-04-03T13:28:21.049Z,2.85
2023-04-03T13:31:02.873Z,2.40
2023-04-03T13:33:34.497Z,2.33
2023-04-03T13:36:05.021Z,2.60
2023-04-03T13:38:34.532Z,3.10
2023-04-03T13:41:04.062Z,2.97
2023-04-03T13:43:33.937Z,3.33
2023-04-03T13:46:21.940Z,3.20
2023-04-03T13:48:52.644Z,3.20
2023-04-03T13:51:23.903Z,2.72
2023-04-03T13:53:57.913Z,3.47
2023-04-03T13:56:27.813Z,2.50
2023-04-03T13:58:56.687Z,3.00
2023-04-03T14:01:24.368Z,2.97
2023-04-03T14:03:54.339Z,2.50
2023-04-03T14:06:21.571Z,2.70
2023-04-03T14:08:49.833Z,2.40
2023-04-03T14:11:21.710Z,2.53
2023-04-03T14:13:48.896Z,3.28
2023-04-03T14:16:19.455Z,3.08
2023-04-03T14:18:47.453Z,3.33
2023-04-03T14:21:16.206Z,2.83
2023-04-03T14:23:43.067Z,2.65
2023-04-03T14:26:19.009Z,2.33
2023-04-03T14:28:47.385Z,2.58
2023-04-03T14:31:15.722Z,3.15
2023-04-03T14:33:42.776Z,2.50
2023-04-03T14:36:17.529Z,2.35
2023-04-03T14:38:45.359Z,2.60
2023-04-03T14:41:17.036Z,2.42
2023-04-03T14:43:45.343Z,2.55
2023-04-03T14:46:18.933Z,2.90
2023-04-03T14:48:46.279Z,2.58
2023-04-03T14:51:14.662Z,2.30
2023-04-03T14:53:42.845Z,1.95
2023-04-03T14:56:29.241Z,2.00
2023-04-03T14:59:00.571Z,1.98
2023-04-03T15:01:29.335Z,2.47
2023-04-03T15:03:56.751Z,1.98
2023-04-03T15:06:23.997Z,2.08
2023-04-03T15:08:51.117Z,2.63
2023-04-03T15:11:18.215Z,2.42
2023-04-03T15:13:45.436Z,2.83
2023-04-03T15:16:15.840Z,2.45
2023-04-03T15:18:42.991Z,2.40
2023-04-03T15:21:10.010Z,2.38
2023-04-03T15:23:37.338Z,2.33
2023-04-03T15:26:04.564Z,2.30
2023-04-03T15:28:32.800Z,2.10
2023-04-03T15:31:00.461Z,2.25
2023-04-03T15:33:27.876Z,1.92
2023-04-03T15:36:02.982Z,2.45
2023-04-03T15:38:34.981Z,1.83
2023-04-03T15:41:02.716Z,2.50
2023-04-03T15:43:29.828Z,2.78
2023-04-03T15:46:00.588Z,2.50
2023-04-03T15:48:28.474Z,2.55
2023-04-03T15:50:57.631Z,2.40
2023-04-03T15:53:24.988Z,2.45
2023-04-03T15:55:52.014Z,2.50
2023-04-03T15:58:19.154Z,2.10
2023-04-03T16:00:46.222Z,2.42
2023-04-03T16:03:17.800Z,2.20
2023-04-03T16:05:45.520Z,2.28
2023-04-03T16:08:13.279Z,2.40
2023-04-03T16:10:40.928Z,2.47
2023-04-03T16:13:08.574Z,2.47
2023-04-03T16:15:36.656Z,2.30
2023-04-03T16:18:03.970Z,1.98
2023-04-03T16:20:31.491Z,2.42
2023-04-03T16:22:59.781Z,2.35
2023-04-03T16:25:27.317Z,2.60
2023-04-03T16:27:54.441Z,3.33
2023-04-03T16:30:21.278Z,2.53
2023-04-03T16:32:48.491Z,2.33
2023-04-03T16:35:15.720Z,2.67
2023-04-03T16:37:42.721Z,2.60
2023-04-03T16:40:10.382Z,2.65
2023-04-03T16:42:38.018Z,3.40
2023-04-03T16:45:06.792Z,2.53
2023-04-03T16:47:33.915Z,2.80
2023-04-03T16:50:01.045Z,2.72
2023-04-03T16:52:28.349Z,2.42
2023-04-03T16:54:56.500Z,2.22
2023-04-03T16:57:25.722Z,10.80
2023-04-03T16:59:53.206Z,7.38
2023-04-03T17:02:20.858Z,3.97
2023-04-03T17:04:52.184Z,3.03
2023-04-03T17:07:20.397Z,3.78
2023-04-03T17:09:47.734Z,3.00
2023-04-03T17:12:14.884Z,3.00
2023-04-03T17:14:41.975Z,2.50
2023-04-03T17:17:09.293Z,3.05
2023-04-03T17:19:37.390Z,2.40
2023-04-03T17:22:04.560Z,2.75
2023-04-03T17:24:31.284Z,2.85
2023-04-03T17:26:57.881Z,2.50
2023-04-03T17:29:24.777Z,2.40
2023-04-03T17:31:51.756Z,2.88
2023-04-03T17:34:18.540Z,2.50
2023-04-03T17:36:45.256Z,2.80
2023-04-03T17:39:11.982Z,2.53
2023-04-03T17:41:38.550Z,2.97
2023-04-03T17:44:06.030Z,3.00
2023-04-03T17:46:34.096Z,3.53
2023-04-03T17:49:03.337Z,2.70
2023-04-03T17:51:30.885Z,2.70
2023-04-03T17:53:57.532Z,2.90
2023-04-03T17:56:27.103Z,2.75
2023-04-03T17:58:56.496Z,3.25
2023-04-03T18:01:28.982Z,2.90
2023-04-03T18:03:57.880Z,3.25
2023-04-03T18:06:33.540Z,3.38
2023-04-03T18:09:11.179Z,2.38
2023-04-03T18:11:38.594Z,2.60
2023-04-03T18:14:08.607Z,3.03
2023-04-03T18:16:36.271Z,3.20
2023-04-03T18:19:21.133Z,2.83
2023-04-03T18:21:50.282Z,2.80
2023-04-03T18:24:19.068Z,3.08
2023-04-03T18:26:54.306Z,2.72
2023-04-03T18:29:21.962Z,2.90
2023-04-03T18:31:51.180Z,3.08
2023-04-03T18:34:18.896Z,3.10
2023-04-03T18:36:46.558Z,3.00
2023-04-03T18:39:13.776Z,3.47
2023-04-03T18:41:41.043Z,3.13
2023-04-03T18:44:10.767Z,3.13
2023-04-03T18:49:10.620Z,3.70
2023-04-03T18:51:40.964Z,3.03
2023-04-03T18:54:10.193Z,3.10
2023-04-03T18:56:37.792Z,3.30
2023-04-03T18:59:08.641Z,3.38
2023-04-03T19:01:36.163Z,2.75
2023-04-03T19:04:03.562Z,2.80
2023-04-03T19:06:30.605Z,2.53
2023-04-03T19:08:57.676Z,2.92
2023-04-03T19:11:24.921Z,2.60
2023-04-03T19:14:10.687Z,2.72
2023-04-03T19:16:41.533Z,3.05
2023-04-03T19:19:08.628Z,3.15
2023-04-03T19:21:40.676Z,3.10
2023-04-03T19:24:12.059Z,3.38
2023-04-03T19:26:39.341Z,3.20
2023-04-03T19:29:06.513Z,3.08
2023-04-03T19:31:34.277Z,3.38
2023-04-03T19:34:03.781Z,3.00
2023-04-03T19:36:31.354Z,3.22
2023-04-03T19:38:58.417Z,2.72
2023-04-03T19:41:27.998Z,2.88
2023-04-03T19:43:56.345Z,2.80
2023-04-03T19:46:27.686Z,2.92
2023-04-03T19:48:54.836Z,3.63
2023-04-03T19:51:22.030Z,3.28
2023-04-03T19:53:51.555Z,3.58
2023-04-03T19:56:20.663Z,3.58
2023-04-03T19:58:53.603Z,3.15
2023-04-03T20:01:21.720Z,3.10
2023-04-03T20:03:51.043Z,4.15
2023-04-03T20:06:21.521Z,3.63
2023-04-03T20:08:49.160Z,3.55
2023-04-03T20:11:19.576Z,3.58
2023-04-03T20:13:49.193Z,3.72
2023-04-03T20:16:17.088Z,4.57
2023-04-03T20:18:44.469Z,3.97
2023-04-03T20:21:12.077Z,3.75
2023-04-03T20:23:39.260Z,4.15
2023-04-03T20:26:10.777Z,4.03
2023-04-03T20:28:40.618Z,3.88
2023-04-03T20:31:09.128Z,4.03
2023-04-03T20:33:37.173Z,3.85
2023-04-03T20:36:04.145Z,3.60
2023-04-03T20:38:31.156Z,3.95
2023-04-03T20:40:57.863Z,3.38
2023-04-03T20:43:25.304Z,3.47
2023-04-03T20:45:51.968Z,4.00
2023-04-03T20:48:19.486Z,3.85
2023-04-03T20:50:46.786Z,3.90
2023-04-03T20:53:14.749Z,4.35
2023-04-03T20:55:43.901Z,3.67
2023-04-03T20:58:11.293Z,3.55
2023-04-03T21:00:38.390Z,3.65
2023-04-03T21:03:05.819Z,4.07
2023-04-03T21:05:34.952Z,3.30
2023-04-03T21:08:39.920Z,3.40
2023-04-03T21:11:44.110Z,3.47
2023-04-03T21:14:48.879Z,3.95
2023-04-03T21:17:15.544Z,3.90
2023-04-03T21:19:46.217Z,3.75
2023-04-03T21:22:14.060Z,3.88
2023-04-03T21:24:41.148Z,3.75
2023-04-03T21:27:08.429Z,3.35
2023-04-03T21:29:35.736Z,4.00
2023-04-03T21:32:02.947Z,3.88
2023-04-03T21:34:30.880Z,4.07
2023-04-03T21:37:01.338Z,4.15
2023-04-03T21:39:28.874Z,3.75
2023-04-03T21:41:55.966Z,3.78
2023-04-03T21:44:23.358Z,3.60
2023-04-03T21:46:54.351Z,3.78
2023-04-03T21:49:24.924Z,3.40
2023-04-03T21:51:52.383Z,4.07
2023-04-03T21:54:20.436Z,3.15
2023-04-03T21:56:48.291Z,3.70
2023-04-03T21:59:15.851Z,3.60
2023-04-03T22:01:43.206Z,4.25
2023-04-03T22:04:10.824Z,3.75
2023-04-03T22:06:38.064Z,3.80
2023-04-03T22:09:05.431Z,3.85
2023-04-03T22:11:32.892Z,3.47
2023-04-03T22:14:00.152Z,3.70
2023-04-03T22:16:27.391Z,3.05
2023-04-03T22:18:56.091Z,3.80
2023-04-03T22:21:23.190Z,3.85
2023-04-03T22:23:50.589Z,3.45
2023-04-03T22:26:17.769Z,4.22
2023-04-03T22:28:46.285Z,3.65
2023-04-03T22:31:14.257Z,3.63
2023-04-03T22:33:41.957Z,3.65
2023-04-03T22:36:10.028Z,3.83
2023-04-03T22:38:37.839Z,4.55
2023-04-03T22:41:06.148Z,4.32
2023-04-03T22:43:33.872Z,4.07
2023-04-03T22:46:01.588Z,4.05
2023-04-03T22:48:29.003Z,4.03
2023-04-03T22:50:56.428Z,4.80
2023-04-03T22:53:23.533Z,4.53
2023-04-03T22:56:00.562Z,3.90
2023-04-03T22:58:28.730Z,4.28
2023-04-03T23:00:56.605Z,4.55
2023-04-03T23:03:24.993Z,3.88
2023-04-03T23:05:53.730Z,4.00
2023-04-03T23:08:20.841Z,4.07
2023-04-03T23:10:48.397Z,3.90
2023-04-03T23:13:15.444Z,4.30
2023-04-03T23:15:42.456Z,3.38
2023-04-03T23:18:09.824Z,4.32
2023-04-03T23:20:37.091Z,4.07
2023-04-03T23:23:04.209Z,3.80
2023-04-03T23:25:31.421Z,4.07
2023-04-03T23:27:58.445Z,4.03
2023-04-03T23:30:25.558Z,3.50
2023-04-03T23:32:52.583Z,4.22
2023-04-03T23:35:19.648Z,3.63
2023-04-03T23:37:46.862Z,3.63
2023-04-03T23:40:14.014Z,3.75
2023-04-03T23:42:41.348Z,3.70
2023-04-03T23:45:08.833Z,3.83
2023-04-03T23:47:36.683Z,3.85
2023-04-03T23:50:03.992Z,4.32
2023-04-03T23:52:31.112Z,3.58
2023-04-03T23:54:58.629Z,3.50
2023-04-03T23:57:25.661Z,3.42
2023-04-03T23:59:52.706Z,3.65
